SKBO2: Hominy C Bl Skiatook Lk Nr Skiatook, OK

Data processed at Wed May 22 2019 23:50


All information presented herein is the property of the government of the United States of America and may be revised or deleted at any time without prior notice.
Dissemination of this information without the expressed written consent of the Public Affairs Office, Tulsa District U.S. Army Corps of Engineers is strictly prohibited.
These data are gathered electronically and, as presented, have not undergone any form of quality control. These data are not guaranteed to be valid or correct.
Go to home page.
Go to station list.
Go to home page.

Upstream stations:

Downstream station:
Previous Day
Next Day
Current Day
    
SHEF ID:       SKBO2     Hominy Creek below Skiatook Lake
STATION TYPE:  

               PRECIP     STAGE  RIV-FLOW   VOLTAGE  BAT-LOAD
                   in        ft       cfs      volt      volt
              Ccp-Rev   Ccp-Rev   Ccp-Rev   Ccp-Rev   Ccp-Rev
(US/Central)
05/22 00:00      0.00     11.19      1080     13.53     13.44
05/22 01:00      0.00     11.09      1056     13.53     13.44
05/22 02:00      0.00     11.00      1034     13.53     13.44
05/22 03:00      0.00     10.89      1008     13.53     13.44
05/22 04:00      0.00     10.79       984     13.53     13.44
05/22 05:00      0.00     10.68       959     13.53     13.44
05/22 06:00      0.00     10.57       932     13.53     13.44
05/22 07:00      0.00     10.48       907     13.53     13.44
05/22 08:00      0.00     10.36       874     13.53     13.44
05/22 09:00      0.00     10.24       842     13.53     13.44
05/22 10:00      0.00     10.12       811     13.53     13.44
05/22 11:00      0.00      9.98       774     13.53     13.44
05/22 12:00      0.00      9.83       736     13.53     13.44
05/22 13:00      0.00      9.66       694     13.53     13.44
05/22 14:00      0.00      9.47       648     13.53     13.44
05/22 15:00      0.00      9.26       579     13.53     13.44
05/22 16:00      0.00      9.00       497     13.53     13.44
05/22 17:00      0.00      8.73       420     13.53     13.44
05/22 18:00      0.01      8.41       338     13.53     13.44
05/22 19:00      0.17      8.13       275     13.53     13.44
05/22 20:00      0.00      7.85       220     13.53     13.44
05/22 21:00      0.00      7.53       165     13.53     13.44
05/22 22:00      0.04      7.21       123     13.53     13.44
05/22 23:00      0.92      7.11       112     13.53     13.44